createdAt,value
2023-11-15T00:00:53.610Z,19.10
2023-11-15T00:03:22.256Z,31.70
2023-11-15T00:05:50.414Z,25.40
2023-11-15T00:08:18.010Z,19.10
2023-11-15T00:10:45.811Z,20.53
2023-11-15T00:13:13.260Z,26.97
2023-11-15T00:15:41.014Z,25.60
2023-11-15T00:18:09.046Z,22.93
2023-11-15T00:20:36.616Z,22.13
2023-11-15T00:23:04.446Z,19.63
2023-11-15T00:25:32.599Z,16.03
2023-11-15T00:28:00.129Z,15.50
2023-11-15T00:30:27.501Z,17.07
2023-11-15T00:32:55.310Z,28.33
2023-11-15T00:35:23.810Z,30.03
2023-11-15T00:37:51.209Z,20.58
2023-11-15T00:40:19.050Z,27.37
2023-11-15T00:42:46.561Z,27.00
2023-11-15T00:45:14.023Z,24.13
2023-11-15T00:47:42.045Z,24.70
2023-11-15T00:50:09.803Z,25.70
2023-11-15T00:52:37.512Z,22.03
2023-11-15T00:55:05.913Z,22.70
2023-11-15T00:57:34.106Z,24.47
2023-11-15T01:00:02.477Z,26.23
2023-11-15T01:02:34.426Z,20.90
2023-11-15T01:05:01.922Z,18.90
2023-11-15T01:07:29.599Z,17.47
2023-11-15T01:09:57.008Z,15.50
2023-11-15T01:12:24.403Z,18.60
2023-11-15T01:14:52.261Z,17.70
2023-11-15T01:17:19.815Z,18.27
2023-11-15T01:19:47.260Z,21.83
2023-11-15T01:22:15.227Z,19.97
2023-11-15T01:24:42.833Z,20.17
2023-11-15T01:27:10.227Z,21.30
2023-11-15T01:29:38.424Z,20.47
2023-11-15T01:32:05.935Z,22.27
2023-11-15T01:34:33.268Z,20.40
2023-11-15T01:37:01.374Z,24.67
2023-11-15T01:39:29.679Z,24.90
2023-11-15T01:41:57.518Z,21.80
2023-11-15T01:44:26.339Z,18.57
2023-11-15T01:46:54.240Z,16.58
2023-11-15T01:49:23.072Z,24.20
2023-11-15T01:51:51.878Z,21.58
2023-11-15T01:54:20.062Z,20.77
2023-11-15T01:56:47.577Z,19.77
2023-11-15T01:59:15.769Z,18.43
2023-11-15T02:01:43.501Z,20.23
2023-11-15T02:04:11.524Z,23.27
2023-11-15T02:06:39.092Z,20.43
2023-11-15T02:09:06.971Z,16.87
2023-11-15T02:11:34.905Z,15.93
2023-11-15T02:14:02.362Z,16.33
2023-11-15T02:16:29.865Z,14.23
2023-11-15T02:18:57.839Z,20.20
2023-11-15T02:21:25.695Z,19.00
2023-11-15T02:23:53.308Z,17.13
2023-11-15T02:26:21.364Z,19.27
2023-11-15T02:28:49.268Z,36.30
2023-11-15T02:31:16.759Z,26.77
2023-11-15T02:33:46.362Z,22.13
2023-11-15T02:36:14.101Z,19.87
2023-11-15T02:38:41.476Z,19.43
2023-11-15T02:41:09.776Z,17.43
2023-11-15T02:43:37.676Z,16.50
2023-11-15T02:46:05.518Z,16.37
2023-11-15T02:48:33.859Z,17.07
2023-11-15T02:51:01.827Z,20.10
2023-11-15T02:53:29.265Z,21.27
2023-11-15T02:55:56.879Z,20.63
2023-11-15T02:58:24.613Z,19.67
2023-11-15T03:00:52.450Z,16.13
2023-11-15T03:03:20.306Z,9.23
2023-11-15T03:05:48.489Z,11.88
2023-11-15T03:08:19.187Z,10.53
2023-11-15T03:10:47.439Z,17.27
2023-11-15T03:13:15.271Z,16.77
2023-11-15T03:15:42.772Z,15.37
2023-11-15T03:18:11.434Z,13.30
2023-11-15T03:23:07.166Z,13.87
2023-11-15T03:25:34.705Z,14.07
2023-11-15T03:28:02.570Z,12.83
2023-11-15T03:30:30.179Z,14.00
2023-11-15T03:32:58.156Z,13.80
2023-11-15T03:35:26.572Z,15.13
2023-11-15T03:37:53.952Z,14.17
2023-11-15T03:40:21.675Z,16.10
2023-11-15T03:42:49.582Z,14.20
2023-11-15T03:45:17.364Z,11.80
2023-11-15T03:47:45.084Z,9.80
2023-11-15T03:50:13.092Z,9.33
2023-11-15T03:52:40.507Z,8.70
2023-11-15T03:55:08.340Z,6.30
2023-11-15T03:57:36.984Z,12.43
2023-11-15T04:00:07.552Z,11.47
2023-11-15T04:02:41.108Z,10.17
2023-11-15T04:05:10.752Z,9.68
2023-11-15T04:07:38.865Z,8.13
2023-11-15T04:10:10.654Z,9.73
2023-11-15T04:12:42.510Z,9.83
2023-11-15T04:15:13.458Z,9.07
2023-11-15T04:17:41.931Z,8.90
2023-11-15T04:20:11.582Z,10.67
2023-11-15T04:22:39.732Z,2.73
2023-11-15T04:25:07.914Z,1.10
2023-11-15T04:27:35.338Z,2.90
2023-11-15T04:30:02.894Z,1.23
2023-11-15T04:32:32.289Z,0.60
2023-11-15T04:35:00.675Z,0.70
2023-11-15T04:37:28.120Z,1.07
2023-11-15T04:39:56.176Z,0.80
2023-11-15T04:42:24.278Z,1.17
2023-11-15T04:44:51.852Z,0.73
2023-11-15T04:47:20.282Z,0.90
2023-11-15T04:49:47.839Z,0.67
2023-11-15T04:52:15.428Z,0.60
2023-11-15T04:54:43.669Z,0.70
2023-11-15T04:57:11.493Z,1.00
2023-11-15T04:59:39.753Z,0.85
2023-11-15T05:02:08.017Z,1.03
2023-11-15T05:04:35.664Z,0.80
2023-11-15T05:07:03.248Z,1.40
2023-11-15T05:09:31.080Z,1.13
2023-11-15T05:11:58.794Z,0.60
2023-11-15T05:14:26.275Z,0.87
2023-11-15T05:16:54.160Z,2.20
2023-11-15T05:19:22.302Z,1.20
2023-11-15T05:21:50.464Z,0.77
2023-11-15T05:24:18.629Z,1.00
2023-11-15T05:26:46.630Z,0.80
2023-11-15T05:29:14.343Z,0.67
2023-11-15T05:31:42.286Z,1.07
2023-11-15T05:34:09.604Z,0.70
2023-11-15T05:36:36.943Z,1.00
2023-11-15T05:39:04.817Z,0.70
2023-11-15T05:41:32.205Z,0.80
2023-11-15T05:44:00.796Z,0.80
2023-11-15T05:46:28.494Z,0.60
2023-11-15T05:48:55.783Z,0.90
2023-11-15T05:51:23.169Z,0.97
2023-11-15T05:53:51.607Z,0.70
2023-11-15T05:56:19.207Z,0.90
2023-11-15T05:58:47.551Z,0.80
2023-11-15T06:03:43.588Z,1.60
2023-11-15T06:06:11.094Z,1.10
2023-11-15T06:08:39.158Z,1.30
2023-11-15T06:11:07.209Z,1.05
2023-11-15T06:13:40.272Z,0.90
2023-11-15T06:16:08.703Z,1.10
2023-11-15T06:18:36.881Z,0.80
2023-11-15T06:21:04.676Z,1.58
2023-11-15T06:23:32.951Z,1.27
2023-11-15T06:26:00.721Z,1.03
2023-11-15T06:28:28.084Z,0.80
2023-11-15T06:30:55.997Z,1.30
2023-11-15T06:33:23.461Z,1.00
2023-11-15T06:35:50.931Z,1.47
2023-11-15T06:38:19.943Z,1.30
2023-11-15T06:40:47.347Z,1.12
2023-11-15T06:43:15.606Z,1.33
2023-11-15T06:45:43.481Z,1.80
2023-11-15T06:48:13.510Z,1.43
2023-11-15T06:50:41.031Z,0.83
2023-11-15T06:53:08.891Z,1.10
2023-11-15T06:55:36.407Z,0.90
2023-11-15T06:58:04.125Z,1.00
2023-11-15T07:00:34.363Z,0.80
2023-11-15T07:03:05.259Z,1.07
2023-11-15T07:05:33.279Z,0.70
2023-11-15T07:08:01.225Z,0.93
2023-11-15T07:10:31.047Z,1.37
2023-11-15T07:13:01.510Z,1.10
2023-11-15T07:15:29.460Z,0.80
2023-11-15T07:17:57.061Z,0.90
2023-11-15T07:20:24.996Z,1.00
2023-11-15T07:22:52.745Z,1.10
2023-11-15T07:25:20.237Z,0.90
2023-11-15T07:27:48.093Z,0.70
2023-11-15T07:30:16.976Z,1.87
2023-11-15T07:32:45.053Z,0.62
2023-11-15T07:35:12.901Z,0.98
2023-11-15T07:37:41.973Z,0.80
2023-11-15T07:40:14.565Z,0.90
2023-11-15T07:42:42.448Z,1.00
2023-11-15T07:45:10.537Z,0.80
2023-11-15T07:47:39.493Z,0.60
2023-11-15T07:50:08.234Z,1.60
2023-11-15T07:52:35.812Z,0.80
2023-11-15T07:55:03.603Z,0.60
2023-11-15T07:57:31.318Z,1.27
2023-11-15T07:59:59.007Z,0.70
2023-11-15T08:02:26.633Z,0.80
2023-11-15T08:04:55.044Z,0.80
2023-11-15T08:07:23.016Z,0.85
2023-11-15T08:09:50.632Z,1.17
2023-11-15T08:12:18.703Z,0.77
2023-11-15T08:14:46.220Z,1.03
2023-11-15T08:17:14.243Z,0.70
2023-11-15T08:19:43.081Z,1.20
2023-11-15T08:22:10.682Z,0.75
2023-11-15T08:24:38.263Z,1.23
2023-11-15T08:27:06.111Z,1.10
2023-11-15T08:29:33.661Z,1.52
2023-11-15T08:32:01.122Z,1.05
2023-11-15T08:34:30.997Z,1.12
2023-11-15T08:36:59.555Z,1.48
2023-11-15T08:39:28.939Z,1.20
2023-11-15T08:41:56.808Z,0.70
2023-11-15T08:44:24.527Z,1.00
2023-11-15T08:46:52.389Z,0.70
2023-11-15T08:49:22.002Z,0.80
2023-11-15T08:51:52.364Z,0.70
2023-11-15T08:54:20.367Z,0.82
2023-11-15T08:56:48.459Z,0.82
2023-11-15T08:59:16.813Z,0.98
2023-11-15T09:01:46.330Z,0.77
2023-11-15T09:04:15.024Z,0.93
2023-11-15T09:06:49.329Z,0.55
2023-11-15T09:09:18.866Z,0.90
2023-11-15T09:11:46.896Z,0.80
2023-11-15T09:14:16.079Z,0.87
2023-11-15T09:16:46.089Z,0.80
2023-11-15T09:19:18.706Z,1.05
2023-11-15T09:21:50.040Z,1.05
2023-11-15T09:24:24.062Z,0.82
2023-11-15T09:26:52.770Z,0.70
2023-11-15T09:29:21.125Z,0.85
2023-11-15T09:31:48.800Z,1.30
2023-11-15T09:34:17.752Z,1.40
2023-11-15T09:36:46.255Z,1.23
2023-11-15T09:39:17.789Z,1.00
2023-11-15T09:41:55.337Z,2.15
2023-11-15T09:44:25.338Z,2.17
2023-11-15T09:46:59.421Z,2.00
2023-11-15T09:49:27.833Z,2.60
2023-11-15T09:51:57.089Z,2.72
2023-11-15T09:54:25.280Z,2.90
2023-11-15T09:56:52.864Z,2.58
2023-11-15T09:59:21.171Z,1.90
2023-11-15T10:01:50.448Z,3.30
2023-11-15T10:04:23.665Z,3.90
2023-11-15T10:07:04.021Z,4.83
2023-11-15T10:09:41.895Z,2.90
2023-11-15T10:12:10.462Z,3.83
2023-11-15T10:14:54.410Z,3.35
2023-11-15T10:17:39.815Z,8.40
2023-11-15T10:20:27.360Z,5.43
2023-11-15T10:22:55.549Z,2.30
2023-11-15T10:25:27.057Z,3.58
2023-11-15T10:28:08.207Z,3.53
2023-11-15T10:30:36.286Z,2.70
2023-11-15T10:33:12.001Z,4.50
2023-11-15T10:35:40.610Z,4.10
2023-11-15T10:38:16.236Z,4.70
2023-11-15T10:40:45.367Z,4.20
2023-11-15T10:43:17.442Z,2.90
2023-11-15T10:45:45.509Z,4.30
2023-11-15T10:48:14.546Z,3.97
2023-11-15T10:50:47.026Z,3.72
2023-11-15T10:53:18.648Z,3.07
2023-11-15T10:55:47.240Z,1.77
2023-11-15T10:58:18.049Z,2.75
2023-11-15T11:00:48.571Z,1.40
2023-11-15T11:03:17.044Z,2.13
2023-11-15T11:05:58.921Z,2.00
2023-11-15T11:08:47.181Z,2.43
2023-11-15T11:11:33.321Z,1.10
2023-11-15T11:14:18.665Z,0.93
2023-11-15T11:16:47.383Z,0.80
2023-11-15T11:22:07.306Z,1.20
2023-11-15T11:24:39.944Z,1.20
2023-11-15T11:27:13.515Z,1.90
2023-11-15T11:30:07.957Z,1.60
2023-11-15T11:32:37.163Z,3.53
2023-11-15T11:35:06.306Z,0.80
2023-11-15T11:38:01.587Z,1.00
2023-11-15T11:40:33.217Z,0.80
2023-11-15T11:43:23.892Z,1.20
2023-11-15T11:45:56.364Z,1.13
2023-11-15T11:48:26.751Z,1.13
2023-11-15T11:51:07.641Z,0.80
2023-11-15T11:53:46.451Z,1.43
2023-11-15T11:56:17.460Z,0.80
2023-11-15T11:58:45.263Z,0.60
2023-11-15T12:01:13.706Z,0.80
2023-11-15T12:03:49.680Z,0.82
2023-11-15T12:06:19.728Z,0.80
2023-11-15T12:08:51.396Z,0.70
2023-11-15T12:11:23.435Z,1.17
2023-11-15T12:13:52.873Z,0.90
2023-11-15T12:16:22.823Z,1.12
2023-11-15T12:19:06.889Z,1.70
2023-11-15T12:21:39.688Z,1.63
2023-11-15T12:24:08.070Z,0.50
2023-11-15T12:26:48.746Z,1.63
2023-11-15T12:29:21.613Z,0.70
2023-11-15T12:31:51.339Z,2.50
2023-11-15T12:34:20.440Z,1.83
2023-11-15T12:36:48.623Z,1.55
2023-11-15T12:39:17.857Z,1.77
2023-11-15T12:41:50.073Z,19.67
2023-11-15T12:44:18.096Z,6.87
2023-11-15T12:46:50.604Z,3.55
2023-11-15T12:49:23.853Z,2.10
2023-11-15T12:51:53.121Z,2.40
2023-11-15T12:54:20.703Z,1.50
2023-11-15T12:57:16.229Z,1.10
2023-11-15T12:59:49.460Z,1.93
2023-11-15T13:02:32.099Z,2.00
2023-11-15T13:05:04.801Z,4.43
2023-11-15T13:07:33.873Z,4.33
2023-11-15T13:10:02.032Z,2.93
2023-11-15T13:12:30.141Z,6.73
2023-11-15T13:14:57.676Z,4.97
2023-11-15T13:17:28.660Z,12.17
2023-11-15T13:20:01.518Z,11.57
2023-11-15T13:22:31.918Z,5.93
2023-11-15T13:24:59.587Z,4.37
2023-11-15T13:27:27.632Z,11.10
2023-11-15T13:29:55.618Z,7.82
2023-11-15T13:32:23.681Z,4.03
2023-11-15T13:34:52.369Z,4.43
2023-11-15T13:39:48.361Z,6.93
2023-11-15T13:42:16.262Z,4.13
2023-11-15T13:44:44.407Z,3.28
2023-11-15T13:47:13.412Z,3.03
2023-11-15T13:49:45.697Z,12.20
2023-11-15T13:52:13.655Z,6.33
2023-11-15T13:54:41.123Z,4.00
2023-11-15T13:57:09.279Z,3.83
2023-11-15T13:59:37.187Z,4.05
2023-11-15T14:02:04.757Z,3.47
2023-11-15T14:04:32.589Z,3.77
2023-11-15T14:07:00.049Z,7.60
2023-11-15T14:09:30.044Z,18.53
2023-11-15T14:12:00.633Z,19.80
2023-11-15T14:14:28.557Z,12.50
2023-11-15T14:16:56.344Z,7.57
2023-11-15T14:19:25.997Z,12.30
2023-11-15T14:21:53.696Z,12.33
2023-11-15T14:24:21.513Z,17.77
2023-11-15T14:26:49.484Z,16.67
2023-11-15T14:29:17.210Z,14.50
2023-11-15T14:31:45.672Z,16.90
2023-11-15T14:34:13.604Z,22.27
2023-11-15T14:36:46.487Z,18.77
2023-11-15T14:39:14.587Z,6.40
2023-11-15T14:41:43.072Z,5.47
2023-11-15T14:44:10.556Z,2.37
2023-11-15T14:46:38.456Z,13.37
2023-11-15T14:49:06.119Z,17.87
2023-11-15T14:51:33.631Z,19.90
2023-11-15T14:54:02.324Z,11.53
2023-11-15T14:56:29.931Z,10.38
2023-11-15T14:59:00.102Z,7.23
2023-11-15T15:01:28.898Z,6.00
2023-11-15T15:03:56.921Z,9.23
2023-11-15T15:06:25.753Z,10.47
2023-11-15T15:11:21.186Z,3.20
2023-11-15T15:13:48.604Z,21.27
2023-11-15T15:16:18.025Z,17.60
2023-11-15T15:21:13.082Z,6.47
2023-11-15T15:23:40.942Z,4.00
2023-11-15T15:26:08.837Z,7.33
2023-11-15T15:28:36.311Z,4.63
2023-11-15T15:31:05.848Z,4.17
2023-11-15T15:36:01.210Z,1.63
2023-11-15T15:38:30.986Z,2.90
2023-11-15T15:40:58.474Z,2.23
2023-11-15T15:43:26.136Z,1.80
2023-11-15T15:45:54.368Z,1.80
2023-11-15T15:50:53.965Z,2.87
2023-11-15T15:53:22.683Z,4.63
2023-11-15T15:55:50.176Z,4.37
2023-11-15T15:58:17.827Z,4.53
2023-11-15T16:00:46.338Z,4.57
2023-11-15T16:03:14.282Z,2.40
2023-11-15T16:05:41.850Z,1.90
2023-11-15T16:08:11.273Z,1.30
2023-11-15T16:10:39.152Z,4.17
2023-11-15T16:13:06.619Z,10.53
2023-11-15T16:15:34.239Z,25.17
2023-11-15T16:18:02.565Z,21.07
2023-11-15T16:20:30.410Z,14.37
2023-11-15T16:22:58.844Z,9.23
2023-11-15T16:25:27.738Z,4.62
2023-11-15T16:27:55.323Z,3.95
2023-11-15T16:30:24.933Z,9.67
2023-11-15T16:32:54.588Z,6.17
2023-11-15T16:35:22.249Z,7.23
2023-11-15T16:37:50.767Z,4.60
2023-11-15T16:40:18.638Z,12.23
2023-11-15T16:42:46.356Z,6.23
2023-11-15T16:45:14.759Z,4.80
2023-11-15T16:47:42.754Z,6.60
2023-11-15T16:50:10.682Z,4.57
2023-11-15T16:52:38.194Z,11.00
2023-11-15T16:55:13.898Z,4.80
2023-11-15T16:57:41.422Z,3.87
2023-11-15T17:00:10.496Z,5.53
2023-11-15T17:02:38.900Z,4.45
2023-11-15T17:05:06.730Z,5.43
2023-11-15T17:07:34.630Z,3.70
2023-11-15T17:10:02.130Z,4.63
2023-11-15T17:12:32.086Z,4.83
2023-11-15T17:15:00.588Z,5.03
2023-11-15T17:17:29.900Z,2.78
2023-11-15T17:22:26.477Z,3.58
2023-11-15T17:24:54.199Z,3.17
2023-11-15T17:27:21.956Z,2.77
2023-11-15T17:29:52.040Z,2.13
2023-11-15T17:32:19.589Z,2.80
2023-11-15T17:34:47.327Z,1.53
2023-11-15T17:37:15.240Z,35.90
2023-11-15T17:39:42.759Z,11.87
2023-11-15T17:42:11.453Z,4.00
2023-11-15T17:47:07.479Z,9.30
2023-11-15T17:49:36.459Z,18.13
2023-11-15T17:52:11.295Z,15.33
2023-11-15T17:54:38.891Z,17.13
2023-11-15T17:57:07.096Z,12.77
2023-11-15T17:59:34.705Z,15.67
2023-11-15T18:02:02.243Z,13.97
2023-11-15T18:04:30.138Z,14.13
2023-11-15T18:06:57.774Z,8.80
2023-11-15T18:09:25.407Z,6.30
2023-11-15T18:11:53.695Z,6.60
2023-11-15T18:14:21.327Z,9.10
2023-11-15T18:16:49.296Z,10.90
2023-11-15T18:19:22.473Z,14.18
2023-11-15T18:21:50.763Z,15.93
2023-11-15T18:24:19.320Z,11.32
2023-11-15T18:26:46.924Z,8.00
2023-11-15T18:29:14.707Z,5.53
2023-11-15T18:31:42.819Z,2.23
2023-11-15T18:34:11.268Z,1.67
2023-11-15T18:36:44.503Z,1.48
2023-11-15T18:39:16.077Z,5.30
2023-11-15T18:41:45.893Z,19.47
2023-11-15T18:44:17.539Z,3.50
2023-11-15T18:46:55.038Z,5.33
2023-11-15T18:49:24.399Z,6.35
2023-11-15T18:51:54.807Z,12.47
2023-11-15T18:54:24.244Z,33.13
2023-11-15T18:56:54.362Z,24.40
2023-11-15T18:59:22.047Z,26.05
2023-11-15T19:01:49.824Z,23.80
2023-11-15T19:04:20.375Z,27.60
2023-11-15T19:06:50.492Z,30.90
2023-11-15T19:09:25.389Z,32.00
2023-11-15T19:11:56.626Z,19.20
2023-11-15T19:14:26.270Z,14.47
2023-11-15T19:16:53.974Z,10.57
2023-11-15T19:19:23.749Z,5.87
2023-11-15T19:21:51.740Z,5.90
2023-11-15T19:24:19.821Z,5.43
2023-11-15T19:26:48.003Z,7.30
2023-11-15T19:29:16.824Z,7.35
2023-11-15T19:31:45.688Z,9.48
2023-11-15T19:34:18.760Z,6.82
2023-11-15T19:36:46.670Z,5.87
2023-11-15T19:39:16.003Z,7.37
2023-11-15T19:41:44.563Z,23.53
2023-11-15T19:44:12.523Z,29.17
2023-11-15T19:46:40.272Z,25.10
2023-11-15T19:49:09.330Z,21.73
2023-11-15T19:51:38.524Z,29.37
2023-11-15T19:56:37.182Z,20.37
2023-11-15T19:59:05.229Z,9.70
2023-11-15T20:01:32.924Z,7.37
2023-11-15T20:04:05.045Z,8.33
2023-11-15T20:06:33.347Z,9.30
2023-11-15T20:09:01.558Z,19.65
2023-11-15T20:11:29.696Z,35.77
2023-11-15T20:13:57.114Z,22.43
2023-11-15T20:16:26.733Z,19.30
2023-11-15T20:18:55.144Z,16.73
2023-11-15T20:21:23.714Z,22.65
2023-11-15T20:23:54.198Z,16.67
2023-11-15T20:26:21.931Z,15.03
2023-11-15T20:28:49.516Z,22.20
2023-11-15T20:31:17.516Z,20.63
2023-11-15T20:33:45.182Z,17.87
2023-11-15T20:36:12.866Z,13.80
2023-11-15T20:38:40.872Z,15.30
2023-11-15T20:41:08.999Z,12.03
2023-11-15T20:43:37.322Z,78.93
2023-11-15T20:46:17.979Z,26.50
2023-11-15T20:48:47.671Z,16.23
2023-11-15T20:51:16.291Z,12.02
2023-11-15T20:53:45.112Z,14.63
2023-11-15T20:56:13.036Z,21.42
2023-11-15T20:58:41.723Z,23.50
2023-11-15T21:01:10.367Z,23.63
2023-11-15T21:03:38.589Z,20.27
2023-11-15T21:06:07.369Z,10.60
2023-11-15T21:08:36.515Z,11.67
2023-11-15T21:13:32.832Z,15.20
2023-11-15T21:16:01.987Z,15.00
2023-11-15T21:20:57.256Z,14.50
2023-11-15T21:23:26.075Z,16.63
2023-11-15T21:25:53.563Z,22.92
2023-11-15T21:28:21.391Z,23.33
2023-11-15T21:30:50.282Z,21.17
2023-11-15T21:33:17.837Z,18.62
2023-11-15T21:35:48.902Z,19.63
2023-11-15T21:38:19.143Z,17.17
2023-11-15T21:40:46.999Z,13.53
2023-11-15T21:43:15.328Z,11.00
2023-11-15T21:45:42.979Z,9.30
2023-11-15T21:48:11.048Z,18.07
2023-11-15T21:50:38.581Z,31.10
2023-11-15T21:53:06.171Z,20.97
2023-11-15T21:55:34.233Z,13.90
2023-11-15T21:58:03.220Z,9.40
2023-11-15T22:00:30.684Z,5.93
2023-11-15T22:02:58.653Z,4.47
2023-11-15T22:05:26.217Z,3.13
2023-11-15T22:07:54.282Z,4.77
2023-11-15T22:10:22.293Z,2.08
2023-11-15T22:12:49.802Z,1.37
2023-11-15T22:15:20.838Z,3.10
2023-11-15T22:17:49.353Z,3.90
2023-11-15T22:20:16.918Z,4.00
2023-11-15T22:22:44.566Z,2.67
2023-11-15T22:25:13.785Z,3.97
2023-11-15T22:27:41.306Z,3.42
2023-11-15T22:30:10.529Z,2.43
2023-11-15T22:32:38.706Z,1.40
2023-11-15T22:35:08.151Z,2.10
2023-11-15T22:37:35.717Z,2.30
2023-11-15T22:40:03.929Z,2.40
2023-11-15T22:42:32.283Z,5.00
2023-11-15T22:45:00.041Z,6.03
2023-11-15T22:47:27.913Z,3.97
2023-11-15T22:49:55.254Z,3.83
2023-11-15T22:52:22.755Z,4.97
2023-11-15T22:54:51.832Z,5.77
2023-11-15T22:57:19.536Z,6.37
2023-11-15T22:59:49.620Z,5.77
2023-11-15T23:02:19.042Z,3.93
2023-11-15T23:04:46.654Z,2.13
2023-11-15T23:07:14.248Z,2.63
2023-11-15T23:09:43.179Z,4.80
2023-11-15T23:12:11.782Z,3.97
2023-11-15T23:14:39.169Z,2.85
2023-11-15T23:17:07.159Z,2.87
2023-11-15T23:19:34.692Z,3.63
2023-11-15T23:22:04.239Z,2.73
2023-11-15T23:24:32.385Z,1.63
2023-11-15T23:27:00.587Z,1.30
2023-11-15T23:29:29.496Z,2.33
2023-11-15T23:31:58.188Z,3.40
2023-11-15T23:34:25.685Z,1.50
2023-11-15T23:36:53.350Z,1.20
2023-11-15T23:39:24.383Z,1.00
2023-11-15T23:41:52.120Z,1.10
2023-11-15T23:44:19.860Z,1.10
2023-11-15T23:46:50.998Z,1.27
2023-11-15T23:49:20.004Z,1.13
2023-11-15T23:51:47.760Z,1.50
2023-11-15T23:54:15.215Z,1.03
2023-11-15T23:56:43.318Z,1.37
2023-11-15T23:59:11.238Z,1.40
